Time;durP1;ratioP1;P1;durP2;ratioP2;P2;SDS_P1;SDS_P2;PMS_P1;PMS_P2;Temp;Humidity;BMP_temperature;BMP_pressure;BME280_temperature;BME280_humidity;BME280_pressure;Samples;Min_cycle;Max_cycle;Signal;HPM_P1;HPM_P2
2021/11/22 00:02:07;;;;;;;;;40.75;37.00;;;;;;;;5141355;27;13384;-74
2021/11/22 00:04:33;;;;;;;;;36.00;31.25;;;;;;;;5141146;27;8969;-75
2021/11/22 00:07:01;;;;;;;;;32.50;30.50;;;;;;;;5121877;27;15267;-75
2021/11/22 00:09:26;;;;;;;;;45.75;39.25;;;;;;;;5141214;27;11469;-75
2021/11/22 00:11:52;;;;;;;;;48.25;39.75;;;;;;;;5139170;27;15285;-74
2021/11/22 00:14:17;;;;;;;;;36.25;31.00;;;;;;;;5140501;27;10554;-74
2021/11/22 00:16:43;;;;;;;;;40.25;37.50;;;;;;;;5140689;27;14582;-74
2021/11/22 00:19:08;;;;;;;;;50.50;42.75;;;;;;;;5140425;27;13245;-73
2021/11/22 00:21:34;;;;;;;;;57.25;45.50;;;;;;;;5140728;27;13502;-74
2021/11/22 00:23:59;;;;;;;;;56.00;45.00;;;;;;;;5140442;27;11388;-74
2021/11/22 00:26:25;;;;;;;;;65.00;54.67;;;;;;;;5121614;27;13658;-74
2021/11/22 00:28:50;;;;;;;;;64.33;54.00;;;;;;;;5139922;27;13346;-74
2021/11/22 00:31:15;;;;;;;;;68.67;55.33;;;;;;;;5140588;27;11561;-74
2021/11/22 00:33:45;;;;;;;;;75.00;61.67;;;;;;;;5141644;27;11434;-74
2021/11/22 00:36:10;;;;;;;;;77.33;62.33;;;;;;;;5139619;27;13492;-74
2021/11/22 00:38:36;;;;;;;;;75.00;58.33;;;;;;;;5122274;27;11791;-74
2021/11/22 00:41:02;;;;;;;;;71.00;57.00;;;;;;;;5140605;27;12560;-74
2021/11/22 00:43:28;;;;;;;;;68.00;55.00;;;;;;;;5139692;27;11648;-74
2021/11/22 00:45:53;;;;;;;;;68.33;53.67;;;;;;;;5140559;27;10376;-74
2021/11/22 00:48:21;;;;;;;;;64.00;52.33;;;;;;;;5139985;27;10356;-74
2021/11/22 00:50:47;;;;;;;;;66.00;51.00;;;;;;;;5140243;27;11658;-74
2021/11/22 00:53:12;;;;;;;;;64.00;49.00;;;;;;;;5121687;27;13662;-74
2021/11/22 00:55:37;;;;;;;;;64.67;53.00;;;;;;;;5140593;27;9533;-74
2021/11/22 00:58:02;;;;;;;;;64.67;52.00;;;;;;;;5139836;27;11418;-74
2021/11/22 01:00:29;;;;;;;;;62.00;51.00;;;;;;;;5140200;27;9486;-74
2021/11/22 01:02:54;;;;;;;;;58.25;45.25;;;;;;;;5139738;27;10700;-74
2021/11/22 01:05:20;;;;;;;;;47.00;40.50;;;;;;;;5140733;27;14692;-74
2021/11/22 01:07:45;;;;;;;;;51.25;39.00;;;;;;;;5144591;27;13299;-74
2021/11/22 01:10:12;;;;;;;;;44.50;38.00;;;;;;;;5143898;27;13227;-74
2021/11/22 01:12:37;;;;;;;;;43.50;36.25;;;;;;;;5144101;27;12391;-73
2021/11/22 01:15:05;;;;;;;;;29.50;28.25;;;;;;;;5143586;27;12074;-73
2021/11/22 01:17:30;;;;;;;;;30.50;27.50;;;;;;;;5144241;27;10872;-73
2021/11/22 01:19:56;;;;;;;;;28.00;25.50;;;;;;;;5144024;27;13631;-74
2021/11/22 01:22:25;;;;;;;;;38.75;29.50;;;;;;;;5143943;27;13538;-74
2021/11/22 01:24:51;;;;;;;;;30.50;25.50;;;;;;;;5143771;27;12297;-74
2021/11/22 01:27:16;;;;;;;;;30.50;24.50;;;;;;;;5143785;27;11563;-74
2021/11/22 01:29:41;;;;;;;;;29.50;25.75;;;;;;;;5143994;27;8782;-74
2021/11/22 01:32:07;;;;;;;;;26.50;24.50;;;;;;;;5143445;27;13215;-74
2021/11/22 01:34:32;;;;;;;;;24.25;21.00;;;;;;;;5143593;27;11388;-74
2021/11/22 01:36:57;;;;;;;;;27.75;23.25;;;;;;;;5143540;27;11356;-73
2021/11/22 01:39:23;;;;;;;;;24.50;21.25;;;;;;;;5143518;27;12777;-74
2021/11/22 01:41:49;;;;;;;;;24.00;21.25;;;;;;;;5143025;27;10599;-74
2021/11/22 01:44:14;;;;;;;;;22.50;21.25;;;;;;;;5143385;27;11483;-74
2021/11/22 01:46:39;;;;;;;;;23.50;22.00;;;;;;;;5125095;27;11619;-74
2021/11/22 01:49:05;;;;;;;;;17.00;14.00;;;;;;;;5143870;27;11720;-74
2021/11/22 01:51:31;;;;;;;;;28.00;25.00;;;;;;;;5143428;27;12219;-74
2021/11/22 01:53:57;;;;;;;;;27.75;23.25;;;;;;;;5143319;27;10915;-74
2021/11/22 01:56:22;;;;;;;;;22.00;20.50;;;;;;;;5143205;27;11458;-75
2021/11/22 01:58:49;;;;;;;;;26.50;24.50;;;;;;;;5142906;27;11620;-75
2021/11/22 02:01:14;;;;;;;;;27.50;25.00;;;;;;;;5143797;27;11920;-75
2021/11/22 02:03:40;;;;;;;;;24.75;24.75;;;;;;;;5143442;27;11393;-74
2021/11/22 02:06:05;;;;;;;;;24.50;22.25;;;;;;;;5143214;27;12553;-75
2021/11/22 02:08:31;;;;;;;;;26.75;24.25;;;;;;;;5143106;27;9733;-75
2021/11/22 02:10:56;;;;;;;;;27.00;25.00;;;;;;;;5143276;27;10679;-80
2021/11/22 02:13:22;;;;;;;;;27.00;23.75;;;;;;;;5142649;27;11955;-74
2021/11/22 02:15:47;;;;;;;;;27.00;23.50;;;;;;;;5142245;27;8782;-74
2021/11/22 02:18:12;;;;;;;;;25.50;24.50;;;;;;;;5143123;27;8920;-75
2021/11/22 02:20:38;;;;;;;;;24.50;22.00;;;;;;;;5142619;27;10603;-75
2021/11/22 02:23:05;;;;;;;;;26.00;25.50;;;;;;;;5142541;27;13076;-75
2021/11/22 02:25:31;;;;;;;;;26.75;23.75;;;;;;;;5143183;27;11500;-75
2021/11/22 02:27:57;;;;;;;;;27.75;23.50;;;;;;;;5142674;27;11452;-75
2021/11/22 02:30:29;;;;;;;;;32.00;25.75;;;;;;;;5142293;27;11494;-75
2021/11/22 02:32:55;;;;;;;;;25.25;23.75;;;;;;;;5124215;27;13754;-75
2021/11/22 02:35:21;;;;;;;;;25.25;23.50;;;;;;;;5142570;27;12884;-74
2021/11/22 02:37:47;;;;;;;;;22.75;20.25;;;;;;;;5142626;27;11531;-75
2021/11/22 02:40:12;;;;;;;;;27.25;22.75;;;;;;;;5142404;27;11382;-75
2021/11/22 02:42:42;;;;;;;;;25.75;24.50;;;;;;;;5142195;27;10403;-75
2021/11/22 02:45:08;;;;;;;;;21.50;17.00;;;;;;;;5141370;27;11658;-75
2021/11/22 02:47:33;;;;;;;;;29.50;26.25;;;;;;;;5142586;27;12513;-74
2021/11/22 02:49:59;;;;;;;;;25.50;23.00;;;;;;;;5142757;27;12248;-75
2021/11/22 02:52:24;;;;;;;;;28.50;27.00;;;;;;;;5142110;27;11537;-75
2021/11/22 02:54:49;;;;;;;;;30.00;27.00;;;;;;;;5142396;27;9839;-74
2021/11/22 02:57:15;;;;;;;;;29.50;24.75;;;;;;;;5142457;27;10149;-74
2021/11/22 02:59:40;;;;;;;;;24.75;23.00;;;;;;;;5143021;27;13317;-74
2021/11/22 03:02:07;;;;;;;;;24.00;22.75;;;;;;;;5142302;27;12673;-74
2021/11/22 03:04:33;;;;;;;;;26.75;26.00;;;;;;;;5142291;27;11696;-74
2021/11/22 03:06:58;;;;;;;;;25.25;23.00;;;;;;;;5123335;27;14187;-74
2021/11/22 03:09:24;;;;;;;;;28.00;25.50;;;;;;;;5142050;27;11578;-74
2021/11/22 03:11:49;;;;;;;;;25.50;23.75;;;;;;;;5141408;27;11850;-74
2021/11/22 03:14:14;;;;;;;;;26.00;23.75;;;;;;;;5142452;27;11567;-74
2021/11/22 03:16:40;;;;;;;;;27.50;24.00;;;;;;;;5142453;27;9022;-74
2021/11/22 03:19:05;;;;;;;;;27.75;25.25;;;;;;;;5142237;27;11372;-74
2021/11/22 03:21:30;;;;;;;;;26.25;23.50;;;;;;;;5142517;27;10420;-74
2021/11/22 03:23:55;;;;;;;;;20.75;20.25;;;;;;;;5141876;27;11431;-75
2021/11/22 03:26:21;;;;;;;;;26.00;24.25;;;;;;;;5142286;27;10912;-75
2021/11/22 03:28:46;;;;;;;;;23.50;23.00;;;;;;;;5140901;27;10323;-75
2021/11/22 03:31:11;;;;;;;;;26.25;22.50;;;;;;;;5141927;27;11402;-75
2021/11/22 03:33:37;;;;;;;;;26.25;23.00;;;;;;;;5141620;27;12480;-75
2021/11/22 03:36:02;;;;;;;;;24.75;21.75;;;;;;;;5141610;27;8894;-75
2021/11/22 03:38:30;;;;;;;;;25.50;22.75;;;;;;;;5141662;27;11373;-75
2021/11/22 03:40:57;;;;;;;;;27.50;24.25;;;;;;;;5142022;27;10920;-76
2021/11/22 03:43:57;;;;;;;;;28.25;27.25;;;;;;;;5141196;27;11540;-75
2021/11/22 03:46:15;;;;;;;;;26.50;24.25;;;;;;;;5136249;27;11497;-75
2021/11/22 03:48:40;;;;;;;;;5.75;4.50;;;;;;;;5122911;27;13534;-74
2021/11/22 03:51:06;;;;;;;;;35.25;30.75;;;;;;;;5141339;27;22519;-75
2021/11/22 03:53:31;;;;;;;;;22.75;22.75;;;;;;;;5122100;27;24611;-75
2021/11/22 03:55:57;;;;;;;;;30.50;27.50;;;;;;;;5141283;27;11624;-76
2021/11/22 03:58:22;;;;;;;;;29.50;27.75;;;;;;;;5140616;27;13232;-76
2021/11/22 04:00:48;;;;;;;;;28.50;27.75;;;;;;;;5141103;27;13452;-75
2021/11/22 04:03:13;;;;;;;;;28.00;23.25;;;;;;;;5141211;27;8817;-76
2021/11/22 04:05:38;;;;;;;;;31.25;27.50;;;;;;;;5140851;27;9550;-76
2021/11/22 04:08:04;;;;;;;;;35.00;30.25;;;;;;;;5122718;27;13574;-75
2021/11/22 04:10:29;;;;;;;;;35.00;28.25;;;;;;;;5141251;27;12373;-76
2021/11/22 04:12:54;;;;;;;;;32.00;30.00;;;;;;;;5141431;27;8786;-75
2021/11/22 04:15:20;;;;;;;;;32.50;30.00;;;;;;;;5141081;27;12410;-74
2021/11/22 04:17:45;;;;;;;;;37.00;35.00;;;;;;;;5141658;27;8777;-75
2021/11/22 04:20:10;;;;;;;;;35.00;29.75;;;;;;;;5141353;27;10354;-75
2021/11/22 04:22:36;;;;;;;;;32.00;29.75;;;;;;;;5140636;27;12562;-75
2021/11/22 04:25:03;;;;;;;;;36.50;33.75;;;;;;;;5140297;27;8806;-75
2021/11/22 04:27:28;;;;;;;;;37.50;33.75;;;;;;;;5140441;27;11724;-75
2021/11/22 04:29:53;;;;;;;;;44.75;36.25;;;;;;;;5141448;27;11498;-76
2021/11/22 04:32:18;;;;;;;;;36.00;33.00;;;;;;;;5141184;27;12376;-75
2021/11/22 04:34:44;;;;;;;;;37.25;34.75;;;;;;;;5141265;27;13668;-75
2021/11/22 04:37:09;;;;;;;;;34.50;32.25;;;;;;;;5141313;27;11498;-76
2021/11/22 04:39:34;;;;;;;;;35.50;31.50;;;;;;;;5140841;27;10343;-78
2021/11/22 04:42:00;;;;;;;;;36.33;33.67;;;;;;;;5140751;27;11580;-76
2021/11/22 04:44:25;;;;;;;;;38.25;32.50;;;;;;;;5140218;27;12790;-76
2021/11/22 04:46:50;;;;;;;;;41.00;35.00;;;;;;;;5140459;27;12022;-76
2021/11/22 04:49:16;;;;;;;;;35.50;32.50;;;;;;;;5140637;27;13215;-76
2021/11/22 04:51:41;;;;;;;;;39.25;35.25;;;;;;;;5140718;27;13354;-75
2021/11/22 04:54:06;;;;;;;;;38.50;34.00;;;;;;;;5139911;27;11494;-76
2021/11/22 04:56:32;;;;;;;;;40.25;35.00;;;;;;;;5140443;27;11475;-76
2021/11/22 04:58:57;;;;;;;;;43.75;36.50;;;;;;;;5139540;27;12611;-76
2021/11/22 05:01:22;;;;;;;;;40.00;35.00;;;;;;;;5140225;27;11372;-76
2021/11/22 05:03:49;;;;;;;;;41.33;37.33;;;;;;;;5139872;27;11366;-76
2021/11/22 05:06:15;;;;;;;;;42.00;37.75;;;;;;;;5121799;27;11808;-76
2021/11/22 05:08:40;;;;;;;;;45.00;39.00;;;;;;;;5140196;27;11460;-76
2021/11/22 05:11:05;;;;;;;;;44.25;39.00;;;;;;;;5140116;27;12937;-75
2021/11/22 05:13:31;;;;;;;;;35.25;35.00;;;;;;;;5121322;27;11110;-76
2021/11/22 05:15:56;;;;;;;;;39.75;35.00;;;;;;;;5139574;27;10828;-75
2021/11/22 05:18:21;;;;;;;;;45.00;38.33;;;;;;;;5140246;27;9688;-75
2021/11/22 05:20:49;;;;;;;;;46.67;39.67;;;;;;;;5139781;27;13231;-75
2021/11/22 05:23:15;;;;;;;;;43.00;37.50;;;;;;;;5140573;27;11694;-76
2021/11/22 05:25:40;;;;;;;;;48.67;39.00;;;;;;;;5140370;27;12706;-75
2021/11/22 09:34:50;;;;;;;;;50.00;39.67;;;;;;;;5068163;28;77817;-85
2021/11/22 09:37:15;;;;;;;;;46.75;39.00;;;;;;;;5054936;28;23280;-82
2021/11/22 09:39:41;;;;;;;;;45.25;39.00;;;;;;;;5053438;28;13800;-80
2021/11/22 09:42:06;;;;;;;;;44.00;38.25;;;;;;;;5055206;28;8809;-77
2021/11/22 09:44:32;;;;;;;;;53.00;40.25;;;;;;;;5055652;28;11785;-88
2021/11/22 09:46:57;;;;;;;;;49.75;40.75;;;;;;;;5054566;28;10549;-76
2021/11/22 09:49:23;;;;;;;;;42.75;36.75;;;;;;;;5051624;28;12197;-78
2021/11/22 09:51:48;;;;;;;;;42.00;35.75;;;;;;;;5055187;28;9733;-74
2021/11/22 09:54:14;;;;;;;;;38.25;33.75;;;;;;;;5052768;28;9548;-77
2021/11/22 09:56:39;;;;;;;;;38.25;35.50;;;;;;;;5054339;28;12310;-82
2021/11/22 09:59:05;;;;;;;;;39.75;36.25;;;;;;;;5054751;28;8801;-76
2021/11/22 10:01:32;;;;;;;;;44.25;38.50;;;;;;;;5054259;28;11833;-81
2021/11/22 10:04:03;;;;;;;;;36.75;34.50;;;;;;;;5055129;28;13801;-74
2021/11/22 10:06:47;;;;;;;;;44.00;37.25;;;;;;;;5054930;28;11544;-74
2021/11/22 10:09:28;;;;;;;;;46.75;37.25;;;;;;;;5052751;28;14074;-73
2021/11/22 10:12:00;;;;;;;;;44.00;37.75;;;;;;;;5052783;28;11624;-76
2021/11/22 10:14:26;;;;;;;;;43.50;38.75;;;;;;;;5054191;28;11669;-74
2021/11/22 10:16:51;;;;;;;;;45.75;37.50;;;;;;;;5054820;28;11574;-76
2021/11/22 10:19:18;;;;;;;;;51.50;39.00;;;;;;;;5054296;28;11912;-74
2021/11/22 10:21:43;;;;;;;;;39.00;34.50;;;;;;;;5064855;28;13353;-73
2021/11/22 10:24:10;;;;;;;;;38.25;35.00;;;;;;;;5073340;28;13726;-73
2021/11/22 10:26:37;;;;;;;;;39.25;34.50;;;;;;;;5075092;28;11612;-74
2021/11/22 10:29:02;;;;;;;;;42.50;36.50;;;;;;;;5074116;28;11542;-74
2021/11/22 10:31:28;;;;;;;;;40.50;35.50;;;;;;;;5073865;28;12742;-75
2021/11/22 10:33:56;;;;;;;;;41.00;35.25;;;;;;;;5074283;28;9153;-73
2021/11/22 10:36:23;;;;;;;;;46.75;39.25;;;;;;;;5073208;28;11694;-77
2021/11/22 10:38:49;;;;;;;;;39.75;35.50;;;;;;;;5072342;28;11563;-76
2021/11/22 10:41:22;;;;;;;;;41.75;35.50;;;;;;;;5073415;28;13337;-75
2021/11/22 10:43:50;;;;;;;;;36.50;34.00;;;;;;;;5074756;28;11562;-79
2021/11/22 10:46:16;;;;;;;;;36.50;33.00;;;;;;;;5059522;28;13383;-75
2021/11/22 10:48:47;;;;;;;;;37.00;33.25;;;;;;;;5061078;28;11669;-76
2021/11/22 10:51:16;;;;;;;;;35.50;32.75;;;;;;;;5059883;28;11678;-76
2021/11/22 10:53:44;;;;;;;;;37.50;34.25;;;;;;;;5060571;28;11869;-75
2021/11/22 10:56:14;;;;;;;;;36.25;33.50;;;;;;;;5060642;28;11559;-75
2021/11/22 10:58:48;;;;;;;;;36.00;33.00;;;;;;;;5059900;28;12776;-76
2021/11/22 11:01:13;;;;;;;;;40.50;35.75;;;;;;;;5060836;28;11734;-81
2021/11/22 11:03:38;;;;;;;;;38.25;34.75;;;;;;;;5058545;28;15341;-81
2021/11/22 11:06:03;;;;;;;;;36.50;34.00;;;;;;;;5060907;28;12191;-74
2021/11/22 11:08:30;;;;;;;;;35.50;33.75;;;;;;;;5060312;28;11646;-73
2021/11/22 11:11:11;;;;;;;;;38.00;33.25;;;;;;;;5059715;28;11814;-72
2021/11/22 11:13:47;;;;;;;;;44.50;36.75;;;;;;;;5060651;28;11518;-72
2021/11/22 11:16:13;;;;;;;;;37.00;34.00;;;;;;;;5059482;28;12533;-71
2021/11/22 11:18:39;;;;;;;;;36.00;34.00;;;;;;;;5060055;28;13693;-72
2021/11/22 11:21:04;;;;;;;;;34.50;32.00;;;;;;;;5059157;28;11546;-70
2021/11/22 11:23:29;;;;;;;;;40.25;32.50;;;;;;;;5058348;28;10555;-70
2021/11/22 11:25:55;;;;;;;;;35.25;32.00;;;;;;;;5058401;28;13278;-70
2021/11/22 11:28:21;;;;;;;;;32.75;29.25;;;;;;;;5058142;28;13374;-71
2021/11/22 11:30:46;;;;;;;;;40.50;34.50;;;;;;;;5058032;28;12213;-72
2021/11/22 11:33:12;;;;;;;;;36.00;31.75;;;;;;;;5057290;28;13793;-72
2021/11/22 11:35:40;;;;;;;;;36.25;34.25;;;;;;;;5058037;28;13235;-72
2021/11/22 11:38:25;;;;;;;;;34.25;31.75;;;;;;;;5057833;28;9872;-72
2021/11/22 11:40:59;;;;;;;;;32.25;32.00;;;;;;;;5055389;28;11496;-73
2021/11/22 11:43:25;;;;;;;;;39.50;35.50;;;;;;;;5058237;28;11500;-74
2021/11/22 11:45:54;;;;;;;;;40.75;34.00;;;;;;;;5058104;28;12566;-73
2021/11/22 11:48:35;;;;;;;;;38.00;33.50;;;;;;;;5056560;28;16782;-75
2021/11/22 11:51:11;;;;;;;;;35.00;32.75;;;;;;;;5056963;28;14814;-73
2021/11/22 11:53:37;;;;;;;;;38.25;34.50;;;;;;;;5056128;28;11561;-71
2021/11/22 11:56:13;;;;;;;;;37.00;33.75;;;;;;;;5057262;28;11699;-72
2021/11/22 11:58:42;;;;;;;;;38.25;33.75;;;;;;;;5056841;28;13744;-71
2021/11/22 12:01:17;;;;;;;;;37.25;33.75;;;;;;;;5057230;28;12232;-72
2021/11/22 12:04:01;;;;;;;;;33.00;31.75;;;;;;;;5057559;28;11521;-72
2021/11/22 12:06:45;;;;;;;;;37.75;33.25;;;;;;;;5059573;28;11798;-73
2021/11/22 12:09:28;;;;;;;;;34.50;32.00;;;;;;;;5059277;28;11475;-73
2021/11/22 12:11:54;;;;;;;;;36.50;32.00;;;;;;;;5059608;28;12698;-73
2021/11/22 12:14:38;;;;;;;;;32.25;30.00;;;;;;;;5059226;28;11546;-74
2021/11/22 12:17:03;;;;;;;;;35.00;32.00;;;;;;;;5057177;28;10501;-72
2021/11/22 12:19:34;;;;;;;;;32.50;30.50;;;;;;;;5058297;28;11635;-72
2021/11/22 12:22:10;;;;;;;;;33.50;29.50;;;;;;;;5058359;28;11540;-71
2021/11/22 12:24:39;;;;;;;;;29.00;27.75;;;;;;;;4848454;28;12700;-72
2021/11/22 12:27:37;;;;;;;;;30.00;27.25;;;;;;;;5016823;28;14453;-73
2021/11/22 12:30:22;;;;;;;;;36.25;29.75;;;;;;;;5004594;28;12344;-73
2021/11/22 12:32:48;;;;;;;;;31.75;29.00;;;;;;;;5014947;28;11924;-74
2021/11/22 12:35:13;;;;;;;;;30.25;26.75;;;;;;;;4999899;28;11793;-73
2021/11/22 12:37:38;;;;;;;;;25.50;25.50;;;;;;;;4998101;28;12090;-71
2021/11/22 12:40:11;;;;;;;;;26.50;26.00;;;;;;;;4999526;28;13203;-72
2021/11/22 12:42:47;;;;;;;;;15.00;15.00;;;;;;;;4999056;28;11455;-72
2021/11/22 12:45:12;;;;;;;;;10.50;8.75;;;;;;;;4997462;28;14531;-72
2021/11/22 12:47:37;;;;;;;;;9.50;8.75;;;;;;;;4998893;28;23238;-73
2021/11/22 12:50:30;;;;;;;;;11.00;11.00;;;;;;;;5019246;28;17780;-73
2021/11/22 12:53:07;;;;;;;;;10.25;8.50;;;;;;;;5017971;28;22589;-71
2021/11/22 12:55:40;;;;;;;;;8.25;8.25;;;;;;;;5020888;28;22222;-72
2021/11/22 12:58:10;;;;;;;;;13.25;10.00;;;;;;;;4998849;28;21690;-72
2021/11/22 13:00:37;;;;;;;;;12.75;11.00;;;;;;;;5008391;28;22570;-71
2021/11/22 13:05:42;;;;;;;;;9.75;9.75;;;;;;;;5133609;27;78846;-82
2021/11/22 13:08:08;;;;;;;;;8.25;7.00;;;;;;;;5144084;27;22007;-75
2021/11/22 13:10:33;;;;;;;;;7.75;7.00;;;;;;;;5148367;27;11696;-79
2021/11/22 13:13:09;;;;;;;;;9.00;7.25;;;;;;;;5142240;27;8799;-81
2021/11/22 13:15:53;;;;;;;;;7.50;7.50;;;;;;;;5137841;27;13270;-75
2021/11/22 13:18:18;;;;;;;;;9.00;6.75;;;;;;;;5139082;27;14128;-77
2021/11/22 13:20:44;;;;;;;;;8.50;6.50;;;;;;;;5158009;27;11786;-77
2021/11/22 13:23:13;;;;;;;;;8.25;8.00;;;;;;;;5150496;27;11466;-76
2021/11/22 13:25:39;;;;;;;;;7.75;6.50;;;;;;;;5135857;27;10545;-80
2021/11/22 13:28:08;;;;;;;;;5.50;5.50;;;;;;;;5136252;27;11478;-77
2021/11/22 13:30:34;;;;;;;;;8.00;7.00;;;;;;;;5136922;27;10344;-75
2021/11/22 13:33:00;;;;;;;;;10.25;7.00;;;;;;;;5135998;27;11667;-76
2021/11/22 13:35:25;;;;;;;;;9.00;8.00;;;;;;;;5135994;27;16212;-75
2021/11/22 13:38:11;;;;;;;;;8.75;8.75;;;;;;;;5136009;27;22865;-76
2021/11/22 13:40:37;;;;;;;;;7.00;7.00;;;;;;;;5129462;27;11406;-76
2021/11/22 13:43:03;;;;;;;;;6.25;5.50;;;;;;;;5135560;27;11453;-75
2021/11/22 13:45:29;;;;;;;;;9.00;7.00;;;;;;;;5134326;27;11618;-73
2021/11/22 13:47:55;;;;;;;;;9.00;7.75;;;;;;;;5134901;27;11435;-78
2021/11/22 13:50:20;;;;;;;;;7.00;5.00;;;;;;;;5155931;27;8808;-77
2021/11/22 13:52:45;;;;;;;;;8.50;5.00;;;;;;;;5155822;27;11350;-75
2021/11/22 13:55:10;;;;;;;;;7.00;7.00;;;;;;;;5156470;27;8953;-77
2021/11/22 13:57:36;;;;;;;;;9.00;5.50;;;;;;;;5156841;27;10287;-75
2021/11/22 14:00:01;;;;;;;;;5.00;5.00;;;;;;;;5156558;27;12463;-77
2021/11/22 14:02:27;;;;;;;;;5.75;4.00;;;;;;;;5156673;27;11279;-79
2021/11/22 14:04:57;;;;;;;;;9.25;6.50;;;;;;;;5156904;27;9863;-82
2021/11/22 14:07:23;;;;;;;;;7.25;6.00;;;;;;;;5158178;27;11464;-79
2021/11/22 14:09:51;;;;;;;;;6.50;6.50;;;;;;;;5156473;27;11364;-77
2021/11/22 14:12:27;;;;;;;;;7.00;7.00;;;;;;;;5156018;27;11566;-78
2021/11/22 14:14:52;;;;;;;;;7.25;7.00;;;;;;;;5153875;27;11668;-79
2021/11/22 14:17:19;;;;;;;;;4.75;4.00;;;;;;;;5143829;27;10856;-77
2021/11/22 14:19:45;;;;;;;;;6.25;6.00;;;;;;;;5143263;27;9741;-79
2021/11/22 14:22:12;;;;;;;;;4.75;4.50;;;;;;;;5142987;27;10804;-79
2021/11/22 14:24:55;;;;;;;;;8.00;7.50;;;;;;;;5142084;27;11389;-76
2021/11/22 14:27:21;;;;;;;;;7.75;7.00;;;;;;;;5142489;27;10799;-75
2021/11/22 14:30:03;;;;;;;;;7.75;7.00;;;;;;;;5141845;27;11535;-74
2021/11/22 14:32:36;;;;;;;;;8.00;8.00;;;;;;;;5143472;27;10769;-74
2021/11/22 14:35:14;;;;;;;;;7.50;7.00;;;;;;;;5142017;27;11439;-75
2021/11/22 14:37:39;;;;;;;;;4.75;4.00;;;;;;;;5142185;27;11413;-74
2021/11/22 14:40:04;;;;;;;;;8.50;7.50;;;;;;;;5142302;27;10945;-77
2021/11/22 14:42:30;;;;;;;;;4.00;4.00;;;;;;;;5141316;27;14886;-78
2021/11/22 14:44:58;;;;;;;;;6.50;6.50;;;;;;;;5142542;27;11323;-75
2021/11/22 14:47:31;;;;;;;;;7.00;5.00;;;;;;;;5142742;27;11873;-74
2021/11/22 14:50:16;;;;;;;;;10.25;7.50;;;;;;;;5141298;27;12509;-77
2021/11/22 14:52:42;;;;;;;;;8.75;8.75;;;;;;;;5137240;27;21462;-70
2021/11/22 14:55:15;;;;;;;;;8.00;8.00;;;;;;;;5141497;27;21356;-71
2021/11/22 14:57:40;;;;;;;;;8.00;8.00;;;;;;;;5142489;27;8772;-69
2021/11/22 15:00:05;;;;;;;;;9.50;9.50;;;;;;;;5142364;27;11190;-69
2021/11/22 15:02:31;;;;;;;;;8.00;7.50;;;;;;;;5142519;27;11610;-68
2021/11/22 15:04:56;;;;;;;;;9.00;8.00;;;;;;;;5142074;27;10552;-68
2021/11/22 15:07:22;;;;;;;;;13.50;8.00;;;;;;;;5139519;27;11647;-68
2021/11/22 15:09:49;;;;;;;;;8.25;6.25;;;;;;;;5142142;27;16312;-69
2021/11/22 15:12:15;;;;;;;;;1.00;1.00;;;;;;;;5141315;27;21694;-69
2021/11/22 15:14:47;;;;;;;;;5.50;5.50;;;;;;;;5141527;27;11617;-78
2021/11/22 15:17:13;;;;;;;;;4.00;4.00;;;;;;;;5142822;27;11491;-76
2021/11/22 15:19:39;;;;;;;;;7.00;5.00;;;;;;;;5140812;27;12498;-76
2021/11/22 15:22:06;;;;;;;;;6.25;6.00;;;;;;;;5141867;27;11360;-75
2021/11/22 15:24:31;;;;;;;;;7.25;6.50;;;;;;;;5141113;27;11606;-77
2021/11/22 15:26:57;;;;;;;;;8.00;6.00;;;;;;;;5139480;27;11654;-76
2021/11/22 15:29:25;;;;;;;;;7.25;7.25;;;;;;;;5141730;27;11506;-82
2021/11/22 15:31:53;;;;;;;;;3.00;3.00;;;;;;;;5141455;27;11788;-80
2021/11/22 15:34:19;;;;;;;;;5.75;5.50;;;;;;;;5141870;27;12063;-81
2021/11/22 15:36:50;;;;;;;;;9.00;7.00;;;;;;;;5136209;27;11616;-77
2021/11/22 15:39:42;;;;;;;;;8.00;7.00;;;;;;;;5140588;27;11544;-77
2021/11/22 15:42:08;;;;;;;;;9.00;7.75;;;;;;;;4963717;27;11418;-83
2021/11/22 15:44:34;;;;;;;;;8.25;8.25;;;;;;;;5059199;28;13030;-80
2021/11/22 15:47:00;;;;;;;;;7.00;7.00;;;;;;;;5080471;28;11406;-81
2021/11/22 15:49:25;;;;;;;;;7.25;7.00;;;;;;;;5078588;28;12560;-81
2021/11/22 15:51:51;;;;;;;;;7.25;7.00;;;;;;;;5080285;28;8790;-81
2021/11/22 15:54:16;;;;;;;;;12.00;8.00;;;;;;;;5027673;28;8940;-76
2021/11/22 15:56:42;;;;;;;;;7.00;7.00;;;;;;;;5078941;28;21368;-75
2021/11/22 15:59:09;;;;;;;;;11.25;9.50;;;;;;;;5079287;28;21628;-73
2021/11/22 16:01:35;;;;;;;;;10.00;7.50;;;;;;;;5079590;28;21462;-73
2021/11/22 16:04:03;;;;;;;;;7.75;7.00;;;;;;;;5075674;28;11419;-73
2021/11/22 16:06:29;;;;;;;;;6.00;6.00;;;;;;;;5044589;28;22521;-73
2021/11/22 16:08:55;;;;;;;;;6.25;6.00;;;;;;;;5039675;28;11451;-74
2021/11/22 16:11:20;;;;;;;;;5.50;4.00;;;;;;;;5060060;28;11565;-73
2021/11/22 16:13:45;;;;;;;;;5.00;5.00;;;;;;;;5059832;28;10253;-75
2021/11/22 16:16:10;;;;;;;;;7.00;7.00;;;;;;;;5059308;28;9836;-76
2021/11/22 16:18:36;;;;;;;;;8.50;7.25;;;;;;;;5058241;28;8824;-76
2021/11/22 16:21:02;;;;;;;;;7.25;7.25;;;;;;;;5059399;28;11727;-78
2021/11/22 16:23:28;;;;;;;;;7.00;7.00;;;;;;;;5059515;28;9221;-78
2021/11/22 16:25:53;;;;;;;;;10.25;7.75;;;;;;;;5059520;28;11423;-79
2021/11/22 16:28:19;;;;;;;;;6.25;6.00;;;;;;;;5060079;28;21616;-81
2021/11/22 16:30:47;;;;;;;;;8.75;7.00;;;;;;;;5058273;28;22702;-80
2021/11/22 16:33:12;;;;;;;;;7.50;7.50;;;;;;;;5059069;28;9525;-79
2021/11/22 16:35:37;;;;;;;;;7.50;7.50;;;;;;;;5059306;28;11637;-81
2021/11/22 16:38:03;;;;;;;;;8.00;6.50;;;;;;;;5059129;28;8784;-78
2021/11/22 16:40:28;;;;;;;;;7.50;6.50;;;;;;;;5060665;28;10334;-83
2021/11/22 16:42:54;;;;;;;;;6.25;6.00;;;;;;;;5057433;28;8800;-81
2021/11/22 16:45:19;;;;;;;;;8.25;7.75;;;;;;;;5057420;28;11712;-82
2021/11/22 16:47:45;;;;;;;;;6.25;4.00;;;;;;;;5057470;28;11479;-85
2021/11/22 16:50:10;;;;;;;;;8.00;6.25;;;;;;;;5056131;28;11543;-73
2021/11/22 16:52:40;;;;;;;;;10.50;9.00;;;;;;;;5057320;28;11458;-77
2021/11/22 16:55:06;;;;;;;;;8.00;8.00;;;;;;;;5057250;28;22144;-75
2021/11/22 16:57:31;;;;;;;;;6.00;6.00;;;;;;;;5056165;28;21668;-75
2021/11/22 16:59:56;;;;;;;;;10.50;9.00;;;;;;;;5057275;28;8801;-74
2021/11/22 17:02:24;;;;;;;;;8.50;6.50;;;;;;;;5056588;28;21461;-77
2021/11/22 17:04:49;;;;;;;;;6.75;6.75;;;;;;;;5056743;28;21447;-75
2021/11/22 17:07:14;;;;;;;;;7.25;7.25;;;;;;;;5055496;28;12292;-75
2021/11/22 17:09:40;;;;;;;;;7.75;7.75;;;;;;;;5059024;28;12014;-77
2021/11/22 17:12:06;;;;;;;;;23.75;19.75;;;;;;;;5059178;28;8769;-73
2021/11/22 17:14:31;;;;;;;;;10.50;10.00;;;;;;;;5058274;28;22606;-80
2021/11/22 17:16:57;;;;;;;;;13.50;11.00;;;;;;;;5056763;28;13611;-74
2021/11/22 17:19:22;;;;;;;;;8.00;8.00;;;;;;;;5057844;28;8959;-77
2021/11/22 17:21:49;;;;;;;;;7.25;7.25;;;;;;;;5058471;28;22159;-80
2021/11/22 17:24:17;;;;;;;;;10.50;9.00;;;;;;;;5057054;28;13764;-80
2021/11/22 17:26:43;;;;;;;;;11.50;8.00;;;;;;;;5057785;28;21767;-80
2021/11/22 17:29:08;;;;;;;;;12.50;11.00;;;;;;;;5058692;28;11442;-75
2021/11/22 17:31:33;;;;;;;;;10.50;8.00;;;;;;;;5057975;28;21989;-74
2021/11/22 17:33:59;;;;;;;;;7.75;7.75;;;;;;;;5058259;28;22786;-74
2021/11/22 17:36:24;;;;;;;;;11.00;8.75;;;;;;;;5057688;28;22167;-73
2021/11/22 17:38:49;;;;;;;;;7.00;6.50;;;;;;;;5056240;28;23476;-73
2021/11/22 17:41:15;;;;;;;;;6.50;6.00;;;;;;;;5057434;28;21334;-73
2021/11/22 17:43:40;;;;;;;;;6.50;6.50;;;;;;;;5058310;28;11357;-75
2021/11/22 17:46:05;;;;;;;;;7.75;7.75;;;;;;;;5058261;28;8784;-73
2021/11/22 17:48:31;;;;;;;;;9.50;8.00;;;;;;;;5057379;28;11808;-75
2021/11/22 17:50:56;;;;;;;;;11.00;7.75;;;;;;;;5059269;28;11514;-74
2021/11/22 17:53:22;;;;;;;;;8.25;8.25;;;;;;;;5061453;28;21711;-74
2021/11/22 17:55:50;;;;;;;;;7.75;6.75;;;;;;;;5061645;28;21327;-77
2021/11/22 17:58:16;;;;;;;;;8.75;8.00;;;;;;;;5061175;28;11641;-78
2021/11/22 18:00:41;;;;;;;;;8.75;7.50;;;;;;;;5060974;28;11886;-78
2021/11/22 18:03:06;;;;;;;;;7.75;7.75;;;;;;;;5061063;28;9639;-78
2021/11/22 18:05:32;;;;;;;;;8.75;7.50;;;;;;;;5061489;28;11810;-85
2021/11/22 18:07:57;;;;;;;;;11.00;11.00;;;;;;;;5062053;28;11352;-88
2021/11/22 18:10:22;;;;;;;;;7.50;7.50;;;;;;;;5058922;28;22735;-83
2021/11/22 18:12:49;;;;;;;;;11.75;7.25;;;;;;;;5061892;28;22186;-80
2021/11/22 18:15:16;;;;;;;;;8.50;8.00;;;;;;;;5061234;28;22715;-83
2021/11/22 18:17:41;;;;;;;;;9.50;9.50;;;;;;;;5059264;28;21799;-74
2021/11/22 18:20:08;;;;;;;;;7.00;7.00;;;;;;;;5060439;28;11564;-81
2021/11/22 18:22:33;;;;;;;;;4.00;4.00;;;;;;;;5061756;28;11360;-82
2021/11/22 18:24:59;;;;;;;;;10.50;7.25;;;;;;;;5061552;28;11414;-84
2021/11/22 18:27:24;;;;;;;;;11.25;9.00;;;;;;;;5060952;28;21531;-84
2021/11/22 18:29:52;;;;;;;;;13.50;9.00;;;;;;;;5060831;28;10827;-82
2021/11/22 18:32:17;;;;;;;;;13.25;10.00;;;;;;;;5061231;28;9759;-82
2021/11/22 18:34:42;;;;;;;;;8.75;7.75;;;;;;;;5059469;28;22127;-82
2021/11/22 18:37:08;;;;;;;;;11.50;9.50;;;;;;;;5060206;28;22282;-81
2021/11/22 18:39:34;;;;;;;;;8.50;7.75;;;;;;;;5061117;28;22542;-80